Time;durP1;ratioP1;P1;durP2;ratioP2;P2;SDS_P1;SDS_P2;PMS_P1;PMS_P2;Temp;Humidity;BMP_temperature;BMP_pressure;BME280_temperature;BME280_humidity;BME280_pressure;Samples;Min_cycle;Max_cycle;Signal;HPM_P1;HPM_P2
2022/12/17 13:06:57;0.00;0.00;0.62;0.00;0.00;0.62;4.00;3.17;;;19.50;20.70;;;;;;2267212;61;20440;-67
2022/12/17 13:09:49;0.00;0.00;0.62;0.00;0.00;0.62;3.93;3.53;;;19.60;20.80;;;;;;2268170;61;20416;-64
2022/12/17 13:12:44;0.00;0.00;0.62;0.00;0.00;0.62;4.00;3.47;;;19.60;20.80;;;;;;2268024;61;20437;-65
2022/12/17 13:15:36;0.00;0.00;0.62;0.00;0.00;0.62;3.73;2.77;;;19.60;20.80;;;;;;2267500;61;20409;-65
2022/12/17 13:18:28;0.00;0.00;0.62;0.00;0.00;0.62;3.30;2.60;;;19.60;20.80;;;;;;2268333;61;20343;-67
2022/12/17 13:21:25;0.00;0.00;0.62;0.00;0.00;0.62;3.90;3.20;;;19.60;20.80;;;;;;2267486;61;20452;-66
2022/12/17 13:24:23;0.00;0.00;0.62;0.00;0.00;0.62;4.20;2.80;;;19.60;20.80;;;;;;2268109;61;20490;-65
2022/12/17 13:27:31;0.00;0.00;0.62;0.00;0.00;0.62;3.40;3.10;;;19.60;20.80;;;;;;2268322;61;20887;-67
2022/12/17 13:30:33;0.00;0.00;0.62;0.00;0.00;0.62;3.17;2.77;;;19.60;20.80;;;;;;2267430;61;20359;-66
2022/12/17 13:33:28;0.00;0.00;0.62;0.00;0.00;0.62;4.03;3.17;;;19.70;20.90;;;;;;2267952;61;20462;-64
2022/12/17 13:36:23;0.00;0.00;0.62;0.00;0.00;0.62;3.83;3.10;;;19.70;20.90;;;;;;2267043;61;20344;-64
2022/12/17 13:39:26;0.00;0.00;0.62;0.00;0.00;0.62;4.60;3.70;;;19.70;20.90;;;;;;2268196;61;20358;-65
2022/12/17 13:42:26;0.00;0.00;0.62;0.00;0.00;0.62;4.90;3.67;;;19.70;20.90;;;;;;2268147;61;20351;-65
2022/12/17 13:45:14;0.00;0.00;0.62;0.00;0.00;0.62;3.87;3.33;;;19.70;20.90;;;;;;2267413;61;20769;-63
2022/12/17 13:47:59;0.00;0.00;0.62;0.00;0.00;0.62;3.73;3.30;;;19.70;20.90;;;;;;2269048;61;20429;-64
2022/12/17 13:50:53;0.00;0.00;0.62;0.00;0.00;0.62;3.27;2.70;;;19.80;21.00;;;;;;2268134;61;20344;-66
2022/12/17 13:53:38;0.00;0.00;0.62;0.00;0.00;0.62;4.03;3.10;;;19.80;21.00;;;;;;2268733;61;20399;-65
2022/12/17 13:56:27;0.00;0.00;0.62;0.00;0.00;0.62;4.50;2.90;;;19.80;21.00;;;;;;2268746;61;20367;-62
2022/12/17 13:59:20;0.00;0.00;0.62;0.00;0.00;0.62;4.10;3.40;;;19.80;21.00;;;;;;2267291;61;20417;-62
2022/12/17 14:02:05;0.00;0.00;0.62;0.00;0.00;0.62;4.40;3.20;;;19.80;20.90;;;;;;2268884;61;20421;-67
2022/12/17 14:04:52;0.00;0.00;0.62;0.00;0.00;0.62;5.60;3.50;;;19.90;21.00;;;;;;2268498;61;20386;-62
2022/12/17 14:07:38;0.00;0.00;0.62;0.00;0.00;0.62;3.60;2.93;;;19.90;21.00;;;;;;2267988;61;20356;-63
2022/12/17 14:10:24;0.00;0.00;0.62;0.00;0.00;0.62;4.10;3.30;;;19.90;21.00;;;;;;2268820;61;20371;-65
2022/12/17 14:13:14;0.00;0.00;0.62;0.00;0.00;0.62;3.37;3.07;;;19.90;21.00;;;;;;2267635;61;20935;-64
2022/12/17 14:15:59;0.00;0.00;0.62;0.00;0.00;0.62;3.70;3.23;;;19.90;20.90;;;;;;2268748;61;20899;-65
2022/12/17 14:18:47;0.00;0.00;0.62;0.00;0.00;0.62;3.73;3.33;;;19.90;20.90;;;;;;2265661;61;20359;-63
2022/12/17 14:21:32;0.00;0.00;0.62;0.00;0.00;0.62;4.13;3.07;;;19.90;20.90;;;;;;2267659;61;20371;-67
2022/12/17 14:24:22;0.00;0.00;0.62;0.00;0.00;0.62;4.60;3.67;;;20.00;20.90;;;;;;2268708;61;20456;-66
2022/12/17 14:27:23;0.00;0.00;0.62;0.00;0.00;0.62;3.93;3.27;;;20.00;20.90;;;;;;2265293;61;20933;-65
2022/12/17 14:30:24;0.00;0.00;0.62;0.00;0.00;0.62;3.47;2.90;;;20.00;20.90;;;;;;2268552;61;20882;-64
2022/12/17 14:33:26;0.00;0.00;0.62;0.00;0.00;0.62;3.47;2.90;;;20.00;20.90;;;;;;2268425;61;20984;-64
2022/12/17 14:36:20;0.00;0.00;0.62;0.00;0.00;0.62;3.47;2.90;;;20.00;20.80;;;;;;2267540;61;20936;-67
2022/12/17 14:39:16;0.00;0.00;0.62;0.00;0.00;0.62;3.70;2.90;;;20.00;20.80;;;;;;2268879;61;20497;-64
2022/12/17 14:42:25;0.00;0.00;0.62;0.00;0.00;0.62;3.93;3.47;;;20.00;20.80;;;;;;2268193;61;20374;-67
2022/12/17 14:45:24;0.00;0.00;0.62;0.00;0.00;0.62;4.43;3.20;;;20.00;20.80;;;;;;2265322;61;20514;-63
2022/12/17 14:48:14;0.00;0.00;0.62;0.00;0.00;0.62;4.47;3.53;;;20.00;20.80;;;;;;2268746;61;20773;-64
2022/12/17 14:50:59;0.00;0.00;0.62;0.00;0.00;0.62;3.97;3.30;;;20.00;20.80;;;;;;2267735;61;20463;-63
2022/12/17 14:53:45;0.00;0.00;0.62;0.00;0.00;0.62;3.17;2.47;;;20.00;20.70;;;;;;2268536;61;20379;-65
2022/12/17 14:56:29;0.00;0.00;0.62;0.00;0.00;0.62;3.10;2.77;;;20.00;20.70;;;;;;2268490;61;20370;-67
2022/12/17 14:59:24;0.00;0.00;0.62;0.00;0.00;0.62;3.37;3.07;;;20.00;20.70;;;;;;2267893;61;20417;-66
2022/12/17 15:02:22;0.00;0.00;0.62;0.00;0.00;0.62;4.27;3.03;;;20.00;20.70;;;;;;2268703;61;20383;-66
2022/12/17 15:05:13;0.00;0.00;0.62;0.00;0.00;0.62;3.70;2.80;;;20.00;20.70;;;;;;2261482;61;20418;-66
2022/12/17 15:07:58;0.00;0.00;0.62;0.00;0.00;0.62;4.40;3.03;;;20.00;21.20;;;;;;2268710;61;20386;-66
2022/12/17 15:10:42;0.00;0.00;0.62;0.00;0.00;0.62;3.50;3.13;;;20.00;20.60;;;;;;2268643;61;20359;-65
2022/12/17 15:13:27;0.00;0.00;0.62;0.00;0.00;0.62;3.30;2.80;;;20.00;20.60;;;;;;2267462;61;20427;-64
2022/12/17 15:16:12;0.00;0.00;0.62;0.00;0.00;0.62;3.47;2.77;;;20.00;20.60;;;;;;2268518;61;20378;-64
2022/12/17 15:18:59;0.00;0.00;0.62;0.00;0.00;0.62;3.17;2.57;;;20.00;20.60;;;;;;2268328;61;20450;-64
2022/12/17 15:21:44;0.00;0.00;0.62;0.00;0.00;0.62;3.03;2.73;;;20.00;20.50;;;;;;2267924;61;20359;-65
2022/12/17 15:24:29;0.00;0.00;0.62;0.00;0.00;0.62;3.60;2.97;;;20.00;20.50;;;;;;2268487;61;20418;-63
2022/12/17 15:27:15;0.00;0.00;0.62;0.00;0.00;0.62;3.73;2.70;;;20.00;20.60;;;;;;2267352;61;20355;-63
2022/12/17 15:29:59;0.00;0.00;0.62;0.00;0.00;0.62;4.30;3.33;;;20.00;20.50;;;;;;2268500;61;20367;-67
2022/12/17 15:32:45;0.00;0.00;0.62;0.00;0.00;0.62;3.37;2.67;;;20.00;20.50;;;;;;2268253;61;20382;-64
2022/12/17 15:35:31;0.00;0.00;0.62;0.00;0.00;0.62;3.77;2.80;;;20.00;20.50;;;;;;2267450;61;20768;-63
2022/12/17 15:38:16;0.00;0.00;0.62;0.00;0.00;0.62;3.47;2.93;;;20.00;20.50;;;;;;2268463;61;20417;-67
2022/12/17 15:43:09;0.00;0.00;0.62;0.00;0.00;0.62;4.40;2.70;;;20.00;20.50;;;;;;2265153;61;20390;-62
2022/12/17 15:44:06;0.00;0.00;0.62;0.00;0.00;0.62;4.17;3.10;;;20.00;20.50;;;;;;2267833;61;20399;-63
2022/12/17 15:46:51;0.00;0.00;0.62;0.00;0.00;0.62;3.80;3.30;;;20.00;20.50;;;;;;2268346;61;20342;-65
2022/12/17 15:49:35;0.00;0.00;0.62;0.00;0.00;0.62;3.43;2.60;;;20.00;20.50;;;;;;2267445;61;20742;-66
2022/12/17 15:52:21;0.00;0.00;0.62;0.00;0.00;0.62;3.60;3.10;;;19.90;20.40;;;;;;2268365;61;20843;-61
2022/12/17 15:55:07;0.00;0.00;0.62;0.00;0.00;0.62;3.40;2.93;;;20.00;20.50;;;;;;2268425;61;20383;-65
2022/12/17 15:57:52;0.00;0.00;0.62;0.00;0.00;0.62;3.10;2.80;;;20.00;20.40;;;;;;2267491;61;20455;-63
2022/12/17 16:00:36;0.00;0.00;0.62;0.00;0.00;0.62;2.47;2.10;;;20.00;20.40;;;;;;2268401;61;20356;-66
2022/12/17 16:03:21;0.00;0.00;0.62;0.00;0.00;0.62;3.80;3.00;;;20.00;20.50;;;;;;2268057;61;20371;-63
2022/12/17 16:06:06;0.00;0.00;0.62;0.00;0.00;0.62;3.50;2.60;;;20.00;20.50;;;;;;2267750;61;20950;-64
2022/12/17 16:08:52;0.00;0.00;0.62;0.00;0.00;0.62;3.60;2.63;;;20.00;20.40;;;;;;2268325;61;20809;-66
2022/12/17 16:11:37;0.00;0.00;0.62;0.00;0.00;0.62;3.23;2.70;;;19.90;20.40;;;;;;2267175;61;20953;-64
2022/12/17 16:14:22;0.00;0.00;0.62;0.00;0.00;0.62;3.87;2.80;;;19.90;20.40;;;;;;2268352;61;20466;-66
2022/12/17 16:17:07;0.00;0.00;0.62;0.00;0.00;0.62;3.23;2.60;;;19.90;20.40;;;;;;2268434;61;20458;-64
2022/12/17 16:19:51;0.00;0.00;0.62;0.00;0.00;0.62;3.10;2.50;;;19.90;20.40;;;;;;2263861;61;20379;-65
2022/12/17 16:22:36;0.00;0.00;0.62;0.00;0.00;0.62;3.37;2.57;;;19.90;20.40;;;;;;2268284;61;20446;-66
2022/12/17 16:25:22;0.00;0.00;0.62;0.00;0.00;0.62;3.37;2.70;;;19.90;20.40;;;;;;2268358;61;20381;-68
2022/12/17 16:28:07;0.00;0.00;0.62;0.00;0.00;0.62;3.40;2.60;;;19.90;20.40;;;;;;2267480;61;20444;-64
2022/12/17 16:31:00;0.00;0.00;0.62;0.00;0.00;0.62;3.80;2.50;;;19.90;20.40;;;;;;2268439;61;20367;-63
2022/12/17 16:33:46;0.00;0.00;0.62;0.00;0.00;0.62;2.80;2.47;;;19.90;20.40;;;;;;2264133;61;20379;-65
2022/12/17 16:36:31;0.00;0.00;0.62;0.00;0.00;0.62;2.70;2.20;;;19.90;20.30;;;;;;2268191;61;20391;-64
2022/12/17 16:39:18;0.00;0.00;0.62;0.00;0.00;0.62;2.70;2.33;;;19.90;20.30;;;;;;2268641;61;20355;-65
2022/12/17 16:42:04;0.00;0.00;0.62;0.00;0.00;0.62;3.07;2.40;;;19.90;20.40;;;;;;2267236;61;20412;-65
2022/12/17 16:44:49;0.00;0.00;0.62;0.00;0.00;0.62;2.83;2.37;;;19.90;20.40;;;;;;2268203;61;20938;-61
2022/12/17 16:47:33;0.00;0.00;0.62;0.00;0.00;0.62;3.00;2.40;;;19.90;20.30;;;;;;2268214;61;20390;-65
2022/12/17 16:50:18;0.00;0.00;0.62;0.00;0.00;0.62;3.50;2.90;;;19.90;20.30;;;;;;2264143;61;20363;-68
2022/12/17 16:53:02;0.00;0.00;0.62;0.00;0.00;0.62;2.73;2.30;;;19.90;20.30;;;;;;2267990;61;20429;-64
2022/12/17 16:55:49;0.00;0.00;0.62;0.00;0.00;0.62;2.87;2.17;;;19.90;20.30;;;;;;2267513;61;20402;-64
2022/12/17 16:58:35;0.00;0.00;0.62;0.00;0.00;0.62;4.00;2.83;;;19.90;20.30;;;;;;2268356;61;20343;-66
2022/12/17 17:01:21;0.00;0.00;0.62;0.00;0.00;0.62;2.77;2.20;;;19.90;20.30;;;;;;2268263;61;20416;-66
2022/12/17 17:04:08;0.00;0.00;0.62;0.00;0.00;0.62;3.27;2.67;;;19.90;20.30;;;;;;2267062;61;20382;-66
2022/12/17 17:06:55;0.00;0.00;0.62;0.00;0.00;0.62;2.47;2.00;;;19.80;20.30;;;;;;2268133;61;20493;-63
2022/12/17 17:09:40;0.00;0.00;0.62;0.00;0.00;0.62;3.10;2.23;;;19.80;20.30;;;;;;2268303;61;20447;-64
2022/12/17 17:12:25;0.00;0.00;0.62;0.00;0.00;0.62;2.90;2.30;;;19.80;20.30;;;;;;2267348;61;20417;-64
2022/12/17 17:15:12;0.00;0.00;0.62;0.00;0.00;0.62;3.30;2.30;;;19.80;20.30;;;;;;2268352;61;20363;-66
2022/12/17 17:17:58;0.00;0.00;0.62;0.00;0.00;0.62;2.50;2.13;;;19.80;20.30;;;;;;2267910;61;20417;-67
2022/12/17 17:20:42;0.00;0.00;0.62;0.00;0.00;0.62;2.77;2.30;;;19.80;20.30;;;;;;2265601;61;20413;-65
2022/12/17 17:23:27;0.00;0.00;0.62;0.00;0.00;0.62;2.80;2.23;;;19.80;20.30;;;;;;2268720;61;20378;-65
2022/12/17 17:26:12;0.00;0.00;0.62;0.00;0.00;0.62;3.43;2.30;;;19.80;20.30;;;;;;2267699;61;20358;-65
2022/12/17 17:28:58;0.00;0.00;0.62;0.00;0.00;0.62;2.83;2.50;;;19.80;20.30;;;;;;2269025;61;20358;-65
2022/12/17 17:31:44;0.00;0.00;0.62;0.00;0.00;0.62;3.43;2.80;;;19.80;20.30;;;;;;2269000;61;20410;-68
2022/12/17 17:34:29;0.00;0.00;0.62;0.00;0.00;0.62;3.60;2.93;;;19.80;20.30;;;;;;2268228;61;20493;-64
2022/12/17 17:37:14;0.00;0.00;0.62;0.00;0.00;0.62;3.40;2.60;;;19.70;20.20;;;;;;2265611;61;20828;-64
2022/12/17 17:39:58;0.00;0.00;0.62;0.00;0.00;0.62;2.63;2.10;;;19.80;20.30;;;;;;2268480;61;20375;-67
2022/12/17 17:42:43;0.00;0.00;0.62;0.00;0.00;0.62;3.40;2.40;;;19.80;20.30;;;;;;2268523;61;20358;-65
2022/12/17 17:45:27;0.00;0.00;0.62;0.00;0.00;0.62;2.50;2.13;;;19.70;20.20;;;;;;2268840;61;20374;-62
2022/12/17 17:48:13;0.00;0.00;0.62;0.00;0.00;0.62;2.80;2.30;;;19.70;20.20;;;;;;2267775;61;20367;-67
2022/12/17 17:50:58;0.00;0.00;0.62;0.00;0.00;0.62;3.23;2.30;;;19.70;20.70;;;;;;2268847;61;20375;-65
2022/12/17 17:53:44;0.00;0.00;0.62;0.00;0.00;0.62;2.73;2.23;;;19.70;20.20;;;;;;2268802;61;20769;-63
2022/12/17 17:56:30;0.00;0.00;0.62;0.00;0.00;0.62;2.73;2.43;;;19.70;20.20;;;;;;2267829;61;20922;-62
2022/12/17 17:59:18;0.00;0.00;0.62;0.00;0.00;0.62;2.80;2.30;;;19.70;20.20;;;;;;2268931;61;20390;-67
2022/12/17 18:02:03;0.00;0.00;0.62;0.00;0.00;0.62;2.60;2.27;;;19.70;20.20;;;;;;2268422;61;20355;-64
2022/12/17 18:04:49;0.00;0.00;0.62;0.00;0.00;0.62;2.83;2.10;;;19.70;20.20;;;;;;2268488;61;20482;-67
2022/12/17 18:07:34;0.00;0.00;0.62;0.00;0.00;0.62;3.10;2.40;;;19.70;20.20;;;;;;2265527;61;20937;-69
2022/12/17 18:10:18;0.00;0.00;0.62;0.00;0.00;0.62;3.40;2.40;;;19.70;20.20;;;;;;2267708;61;20433;-69
2022/12/17 18:16:08;0.00;0.00;0.62;0.00;0.00;0.62;3.30;2.23;;;19.70;20.20;;;;;;2268891;61;20405;-65
2022/12/17 18:18:56;0.00;0.00;0.62;0.00;0.00;0.62;3.03;2.13;;;19.70;20.20;;;;;;2264613;61;20389;-63
2022/12/17 18:21:42;0.00;0.00;0.62;0.00;0.00;0.62;3.50;2.23;;;19.60;20.10;;;;;;2268899;61;20359;-67
2022/12/17 18:24:27;0.00;0.00;0.62;0.00;0.00;0.62;2.70;2.47;;;19.60;20.10;;;;;;2268012;61;20479;-62
2022/12/17 18:27:11;0.00;0.00;0.62;0.00;0.00;0.62;2.60;2.10;;;19.60;20.60;;;;;;2268590;61;20367;-66
2022/12/17 18:29:56;0.00;0.00;0.62;0.00;0.00;0.62;3.17;2.20;;;19.60;20.10;;;;;;2268316;61;20922;-64
2022/12/17 18:32:41;0.00;0.00;0.62;0.00;0.00;0.62;3.70;2.57;;;19.60;20.10;;;;;;2267307;61;20370;-62
2022/12/17 18:35:26;0.00;0.00;0.62;0.00;0.00;0.62;2.90;2.30;;;19.60;20.10;;;;;;2265603;61;20359;-65
2022/12/17 18:38:12;0.00;0.00;0.62;0.00;0.00;0.62;4.03;3.00;;;19.60;20.10;;;;;;2268740;61;20883;-63
2022/12/17 18:41:03;0.00;0.00;0.62;0.00;0.00;0.62;3.33;2.10;;;19.60;20.10;;;;;;2267678;61;20404;-69
2022/12/17 18:43:47;0.00;0.00;0.62;0.00;0.00;0.62;2.80;2.17;;;19.60;20.10;;;;;;2268561;61;20391;-69
2022/12/17 18:46:33;0.00;0.00;0.62;0.00;0.00;0.62;2.90;2.40;;;19.60;20.10;;;;;;2268264;61;20902;-66
2022/12/17 18:49:21;0.00;0.00;0.62;0.00;0.00;0.62;3.47;2.50;;;19.60;20.10;;;;;;2268498;61;20367;-64
2022/12/17 18:52:06;0.00;0.00;0.62;0.00;0.00;0.62;3.70;2.43;;;19.60;20.10;;;;;;2268483;61;20781;-65
2022/12/17 18:54:53;0.00;0.00;0.62;0.00;0.00;0.62;3.60;2.70;;;19.60;20.00;;;;;;2267489;61;20410;-65
2022/12/17 18:57:38;0.00;0.00;0.62;0.00;0.00;0.62;3.47;2.60;;;19.60;20.10;;;;;;2265551;61;20416;-63
2022/12/17 19:00:22;0.00;0.00;0.62;0.00;0.00;0.62;2.83;2.03;;;19.50;20.00;;;;;;2268633;61;20359;-65
2022/12/17 19:03:08;0.00;0.00;0.62;0.00;0.00;0.62;2.57;2.27;;;19.50;20.00;;;;;;2267319;61;20379;-66
2022/12/17 19:05:53;0.00;0.00;0.62;0.00;0.00;0.62;2.73;2.43;;;19.50;20.00;;;;;;2265371;61;20413;-67
2022/12/17 19:08:38;0.00;0.00;0.62;0.00;0.00;0.62;2.93;2.37;;;19.50;20.00;;;;;;2268014;61;20397;-66
2022/12/17 19:11:24;0.00;0.00;0.62;0.00;0.00;0.62;3.13;2.33;;;19.50;20.00;;;;;;2268322;61;20910;-66
2022/12/17 19:14:09;0.00;0.00;0.62;0.00;0.00;0.62;3.00;2.70;;;19.50;20.00;;;;;;2268369;61;20383;-65
2022/12/17 19:16:56;0.00;0.00;0.62;0.00;0.00;0.62;3.30;2.63;;;19.50;20.00;;;;;;2267478;61;20362;-65
2022/12/17 19:19:44;0.00;0.00;0.62;0.00;0.00;0.62;3.00;2.30;;;19.50;20.00;;;;;;2268128;61;20359;-65
2022/12/17 19:22:29;0.00;0.00;0.62;0.00;0.00;0.62;3.10;2.50;;;19.50;20.00;;;;;;2268470;61;20367;-68
2022/12/17 19:25:17;0.00;0.00;0.62;0.00;0.00;0.62;2.93;2.40;;;19.50;20.00;;;;;;2267427;61;20359;-65
2022/12/17 19:28:06;0.00;0.00;0.62;0.00;0.00;0.62;2.40;2.13;;;19.50;20.00;;;;;;2268545;61;20363;-68
2022/12/17 19:30:56;0.00;0.00;0.62;0.00;0.00;0.62;2.90;2.47;;;19.50;20.00;;;;;;2268131;61;20366;-66
2022/12/17 19:33:40;0.00;0.00;0.62;0.00;0.00;0.62;2.70;2.20;;;19.40;20.00;;;;;;2267793;61;20387;-65
2022/12/17 19:36:29;0.00;0.00;0.62;0.00;0.00;0.62;3.07;2.73;;;19.40;20.00;;;;;;2268400;61;20890;-67
2022/12/17 19:39:16;0.00;0.00;0.62;0.00;0.00;0.62;2.93;2.33;;;19.40;20.00;;;;;;2267537;61;20385;-66
2022/12/17 19:42:04;0.00;0.00;0.62;0.00;0.00;0.62;3.10;2.57;;;19.40;20.00;;;;;;2268221;61;20725;-66
2022/12/17 19:44:51;0.00;0.00;0.62;0.00;0.00;0.62;3.43;2.53;;;19.40;20.00;;;;;;2268308;61;20394;-65
2022/12/17 19:47:35;0.00;0.00;0.62;0.00;0.00;0.62;3.07;2.50;;;19.40;20.00;;;;;;2267414;61;20395;-67
2022/12/17 19:50:20;0.00;0.00;0.62;0.00;0.00;0.62;2.43;2.23;;;19.40;20.00;;;;;;2268403;61;20343;-63
2022/12/17 19:53:05;0.00;0.00;0.62;0.00;0.00;0.62;2.37;2.03;;;19.40;20.00;;;;;;2267969;61;20387;-66
2022/12/17 19:55:49;0.00;0.00;0.62;0.00;0.00;0.62;5.53;2.80;;;19.40;20.00;;;;;;2268101;61;20395;-64
2022/12/17 19:58:34;0.00;0.00;0.62;0.00;0.00;0.62;3.30;2.43;;;19.40;20.00;;;;;;2268311;61;20762;-65
2022/12/17 20:01:23;0.00;0.00;0.62;0.00;0.00;0.62;2.73;2.43;;;19.40;20.00;;;;;;2267332;61;20363;-62
2022/12/17 20:04:09;0.00;0.00;0.62;0.00;0.00;0.62;2.57;1.93;;;19.40;20.00;;;;;;2268182;61;20379;-63
2022/12/17 20:06:54;0.00;0.00;0.62;0.00;0.00;0.62;3.80;2.60;;;19.30;19.90;;;;;;2268414;61;20409;-63
2022/12/17 20:09:39;0.00;0.00;0.62;0.00;0.00;0.62;3.03;2.37;;;19.30;19.90;;;;;;2267253;61;20413;-63
2022/12/17 20:12:24;0.00;0.00;0.62;0.00;0.00;0.62;3.80;2.40;;;19.30;19.90;;;;;;2268177;61;20382;-68
2022/12/17 20:15:09;0.00;0.00;0.62;0.00;0.00;0.62;3.10;2.43;;;19.30;19.90;;;;;;2268115;61;20924;-63
2022/12/17 20:17:56;0.00;0.00;0.62;0.00;0.00;0.62;2.43;2.00;;;19.40;20.00;;;;;;2267902;61;20385;-68
2022/12/17 20:20:41;0.00;0.00;0.62;0.00;0.00;0.62;2.70;2.30;;;19.30;19.90;;;;;;2268391;61;20845;-63
2022/12/17 20:23:26;0.00;0.00;0.62;0.00;0.00;0.62;3.17;2.27;;;19.30;19.90;;;;;;2267194;61;20374;-65
2022/12/17 20:26:11;0.00;0.00;0.62;0.00;0.00;0.62;3.03;2.40;;;19.30;19.90;;;;;;2268293;61;20354;-66
2022/12/17 20:28:56;0.00;0.00;0.62;0.00;0.00;0.62;3.00;2.30;;;19.30;19.90;;;;;;2268486;61;20848;-67
2022/12/17 20:31:47;0.00;0.00;0.62;0.00;0.00;0.62;3.47;2.53;;;19.30;19.90;;;;;;2267087;61;20354;-67
2022/12/17 20:34:33;0.00;0.00;0.62;0.00;0.00;0.62;2.40;2.00;;;19.30;20.00;;;;;;2268366;61;20391;-65
2022/12/17 20:37:18;0.00;0.00;0.62;0.00;0.00;0.62;2.47;2.20;;;19.30;20.00;;;;;;2268116;61;20379;-64
2022/12/17 20:40:04;0.00;0.00;0.62;0.00;0.00;0.62;3.20;2.33;;;19.30;20.00;;;;;;2267896;61;20374;-65
2022/12/17 20:42:50;0.00;0.00;0.62;0.00;0.00;0.62;2.40;2.00;;;19.30;20.00;;;;;;2268223;61;20351;-63
2022/12/17 20:45:35;0.00;0.00;0.62;0.00;0.00;0.62;2.70;2.17;;;19.30;20.00;;;;;;2267173;61;20363;-67
2022/12/17 20:48:20;0.00;0.00;0.62;0.00;0.00;0.62;2.57;1.90;;;19.20;19.90;;;;;;2268294;61;20358;-66
2022/12/17 20:51:13;0.00;0.00;0.62;0.00;0.00;0.62;2.93;2.63;;;19.20;19.90;;;;;;2268418;61;20886;-66
2022/12/17 20:54:00;0.00;0.00;0.62;0.00;0.00;0.62;3.37;2.73;;;19.30;20.00;;;;;;2266812;61;20836;-65
2022/12/17 20:56:45;0.00;0.00;0.62;0.00;0.00;0.62;2.40;2.17;;;19.30;20.00;;;;;;2269096;61;20362;-68
2022/12/17 20:59:29;0.00;0.00;0.62;0.00;0.00;0.62;2.97;2.20;;;19.20;19.90;;;;;;2268513;61;20424;-66
2022/12/17 21:02:15;0.00;0.00;0.62;0.00;0.00;0.62;2.83;2.10;;;19.20;19.90;;;;;;2268486;61;20397;-62
2022/12/17 21:05:00;0.00;0.00;0.62;0.00;0.00;0.62;3.10;2.40;;;19.20;19.90;;;;;;2269049;61;20382;-64
2022/12/17 21:07:45;0.00;0.00;0.62;0.00;0.00;0.62;3.03;2.20;;;19.20;19.90;;;;;;2267677;61;20391;-64
2022/12/17 21:10:30;0.00;0.00;0.62;0.00;0.00;0.62;2.57;2.00;;;19.20;20.00;;;;;;2269099;61;20903;-62
2022/12/17 21:13:30;0.00;0.00;0.62;0.00;0.00;0.62;3.30;2.50;;;19.20;19.90;;;;;;2268718;61;20423;-64
2022/12/17 21:16:17;0.00;0.00;0.62;0.00;0.00;0.62;2.40;1.80;;;19.20;19.90;;;;;;2267731;61;20404;-66
2022/12/17 21:19:03;0.00;0.00;0.62;0.00;0.00;0.62;2.50;2.00;;;19.20;20.50;;;;;;2269153;61;20413;-64
2022/12/17 21:21:48;0.00;0.00;0.62;0.00;0.00;0.62;2.77;2.10;;;19.20;19.90;;;;;;2268200;61;20355;-61
2022/12/17 21:24:35;0.00;0.00;0.62;0.00;0.00;0.62;2.87;2.03;;;19.10;19.90;;;;;;2268307;61;20418;-65
2022/12/17 21:27:21;0.00;0.00;0.62;0.00;0.00;0.62;2.73;2.00;;;19.20;19.90;;;;;;2265737;61;20390;-64
2022/12/17 21:30:08;0.00;0.00;0.62;0.00;0.00;0.62;2.87;2.00;;;19.10;19.90;;;;;;2267725;61;20370;-66
2022/12/17 21:32:54;0.00;0.00;0.62;0.00;0.00;0.62;2.70;1.80;;;19.10;19.90;;;;;;2268752;61;20383;-66
2022/12/17 21:35:38;0.00;0.00;0.62;0.00;0.00;0.62;2.93;2.30;;;19.10;19.90;;;;;;2265802;61;20795;-64
2022/12/17 21:38:23;0.00;0.00;0.62;0.00;0.00;0.62;2.80;2.37;;;19.20;20.00;;;;;;2267842;61;20445;-64
2022/12/17 21:41:11;0.00;0.00;0.62;0.00;0.00;0.62;2.60;2.20;;;19.10;19.90;;;;;;2269102;61;20385;-62
2022/12/17 21:43:58;0.00;0.00;0.62;0.00;0.00;0.62;2.83;1.87;;;19.10;19.90;;;;;;2268331;61;20426;-66
2022/12/17 21:46:43;0.00;0.00;0.62;0.00;0.00;0.62;2.77;2.00;;;19.10;19.90;;;;;;2268570;61;20914;-62
2022/12/17 21:49:28;0.00;0.00;0.62;0.00;0.00;0.62;3.13;2.30;;;19.10;19.90;;;;;;2268802;61;20490;-62
2022/12/17 21:52:13;0.00;0.00;0.62;0.00;0.00;0.62;2.57;2.20;;;19.10;20.50;;;;;;2267728;61;20391;-64
2022/12/17 21:54:57;0.00;0.00;0.62;0.00;0.00;0.62;2.40;1.90;;;19.10;20.00;;;;;;2268925;61;20383;-64
2022/12/17 21:57:43;0.00;0.00;0.62;0.00;0.00;0.62;4.03;2.27;;;19.10;20.00;;;;;;2268837;61;20398;-65
2022/12/17 22:00:28;0.00;0.00;0.62;0.00;0.00;0.62;3.30;1.80;;;19.10;20.00;;;;;;2268110;61;20761;-60
2022/12/17 22:03:12;0.00;0.00;0.62;0.00;0.00;0.62;2.90;1.83;;;19.10;20.10;;;;;;2265528;61;20421;-65
2022/12/17 22:06:03;0.00;0.00;0.62;0.00;0.00;0.62;2.87;1.90;;;19.10;20.20;;;;;;2268441;61;20898;-63
2022/12/17 22:08:47;0.00;0.00;0.62;0.00;0.00;0.62;4.00;2.23;;;19.10;20.20;;;;;;2268065;61;20422;-64
2022/12/17 22:11:32;0.00;0.00;0.62;0.00;0.00;0.62;2.60;2.00;;;19.10;20.20;;;;;;2268826;61;20398;-64
2022/12/17 22:14:18;0.00;0.00;0.62;0.00;0.00;0.62;3.07;2.53;;;19.10;20.20;;;;;;2267808;61;20452;-69
2022/12/17 22:17:03;0.00;0.00;0.62;0.00;0.00;0.62;2.60;2.20;;;19.10;20.20;;;;;;2265559;61;20403;-65
2022/12/17 22:19:47;0.00;0.00;0.62;0.00;0.00;0.62;3.60;2.17;;;19.10;20.20;;;;;;2268871;61;20828;-68
2022/12/17 22:22:32;0.00;0.00;0.62;0.00;0.00;0.62;3.57;2.60;;;19.10;20.30;;;;;;2267695;61;20352;-67
2022/12/17 22:25:17;0.00;0.00;0.62;0.00;0.00;0.62;3.20;2.00;;;19.10;20.20;;;;;;2268826;61;20347;-66
2022/12/17 22:28:02;0.00;0.00;0.62;0.00;0.00;0.62;2.50;2.20;;;19.10;20.30;;;;;;2268506;61;20852;-64
2022/12/17 22:33:52;0.00;0.00;0.62;0.00;0.00;0.62;2.90;2.10;;;19.10;20.50;;;;;;2268454;61;20456;-68
2022/12/17 22:36:38;0.00;0.00;0.62;0.00;0.00;0.62;3.23;2.30;;;19.10;20.70;;;;;;2267690;61;20405;-66
2022/12/17 22:39:23;0.00;0.00;0.62;0.00;0.00;0.62;2.17;1.70;;;19.10;20.70;;;;;;2268646;61;20391;-72
2022/12/17 22:45:11;0.00;0.00;0.62;0.00;0.00;0.62;2.20;1.60;;;19.10;20.60;;;;;;2267802;61;20370;-63
2022/12/17 22:47:57;0.00;0.00;0.62;0.00;0.00;0.62;2.33;2.03;;;19.10;20.70;;;;;;2268629;61;20367;-62
2022/12/17 22:50:42;0.00;0.00;0.62;0.00;0.00;0.62;2.80;1.73;;;19.10;20.80;;;;;;2268391;61;20371;-66
2022/12/17 22:53:27;0.00;0.00;0.62;0.00;0.00;0.62;2.20;1.77;;;19.10;20.80;;;;;;2267957;61;20442;-67
2022/12/17 22:56:11;0.00;0.00;0.62;0.00;0.00;0.62;3.37;2.30;;;19.10;20.80;;;;;;2268757;61;20354;-67
2022/12/17 22:58:56;0.00;0.00;0.62;0.00;0.00;0.62;2.50;2.10;;;19.10;20.90;;;;;;2267727;61;20359;-65
2022/12/17 23:01:41;0.00;0.00;0.62;0.00;0.00;0.62;2.87;2.10;;;19.10;20.90;;;;;;2268533;61;20395;-66
2022/12/17 23:04:28;0.00;0.00;0.62;0.00;0.00;0.62;3.07;2.13;;;19.10;20.90;;;;;;2268799;61;20383;-63
2022/12/17 23:07:12;0.00;0.00;0.62;0.00;0.00;0.62;2.37;1.90;;;19.20;21.00;;;;;;2267437;61;20409;-68
2022/12/17 23:09:57;0.00;0.00;0.62;0.00;0.00;0.62;2.27;1.87;;;19.20;20.90;;;;;;2268282;61;20360;-65
2022/12/17 23:12:53;0.00;0.00;0.62;0.00;0.00;0.62;2.40;1.80;;;19.20;20.90;;;;;;2268004;61;20472;-62
2022/12/17 23:15:38;0.00;0.00;0.62;0.00;0.00;0.62;3.00;2.40;;;19.20;20.80;;;;;;2268190;61;20360;-62
2022/12/17 23:18:22;0.00;0.00;0.62;0.00;0.00;0.62;2.87;2.20;;;19.20;21.40;;;;;;2268681;61;20355;-62
2022/12/17 23:21:12;0.00;0.00;0.62;0.00;0.00;0.62;2.67;1.83;;;19.20;20.80;;;;;;2267611;61;20443;-62
2022/12/17 23:23:58;0.00;0.00;0.62;0.00;0.00;0.62;3.00;2.33;;;19.20;20.80;;;;;;2268516;61;20427;-64
2022/12/17 23:26:43;0.00;0.00;0.62;0.00;0.00;0.62;2.37;1.53;;;19.20;20.80;;;;;;2268564;61;20358;-65
2022/12/17 23:29:28;0.00;0.00;0.62;0.00;0.00;0.62;2.37;1.90;;;19.20;20.80;;;;;;2267433;61;20759;-65
2022/12/17 23:32:12;0.00;0.00;0.62;0.00;0.00;0.62;2.20;1.60;;;19.20;20.80;;;;;;2268547;61;20380;-64
2022/12/17 23:34:57;0.00;0.00;0.62;0.00;0.00;0.62;2.30;1.90;;;19.20;20.70;;;;;;2268240;61;20906;-65
2022/12/17 23:37:43;0.00;0.00;0.62;0.00;0.00;0.62;2.30;1.70;;;19.20;20.80;;;;;;2268385;61;20370;-63
2022/12/17 23:40:27;0.00;0.00;0.62;0.00;0.00;0.62;1.87;1.50;;;19.20;20.70;;;;;;2268569;61;20783;-61
2022/12/17 23:43:12;0.00;0.00;0.62;0.00;0.00;0.62;2.87;2.23;;;19.20;20.70;;;;;;2267173;61;20394;-66
2022/12/17 23:45:56;0.00;0.00;0.62;0.00;0.00;0.62;3.57;2.13;;;19.20;20.70;;;;;;2268573;61;20363;-65
2022/12/17 23:48:43;0.00;0.00;0.62;0.00;0.00;0.62;2.20;1.90;;;19.20;20.70;;;;;;2268685;61;20413;-61
2022/12/17 23:51:28;0.00;0.00;0.62;0.00;0.00;0.62;2.40;2.10;;;19.20;20.70;;;;;;2267296;61;20417;-65
2022/12/17 23:54:14;0.00;0.00;0.62;0.00;0.00;0.62;2.43;2.00;;;19.20;20.70;;;;;;2265231;61;20448;-65
2022/12/17 23:56:59;0.00;0.00;0.62;0.00;0.00;0.62;2.57;1.93;;;19.20;20.70;;;;;;2268346;61;20862;-64
2022/12/17 23:59:43;0.00;0.00;0.62;0.00;0.00;0.62;2.67;1.90;;;19.20;20.70;;;;;;2267879;61;20395;-64
